createdAt,value
2024-01-24T00:00:42.974Z,1.53
2024-01-24T00:03:09.906Z,1.93
2024-01-24T00:05:36.866Z,1.97
2024-01-24T00:08:03.896Z,1.80
2024-01-24T00:10:30.678Z,2.50
2024-01-24T00:12:57.652Z,1.67
2024-01-24T00:15:24.581Z,1.43
2024-01-24T00:17:51.636Z,1.10
2024-01-24T00:20:18.448Z,1.33
2024-01-24T00:22:45.326Z,1.40
2024-01-24T00:25:12.456Z,2.23
2024-01-24T00:27:39.361Z,1.50
2024-01-24T00:30:06.947Z,1.60
2024-01-24T00:32:33.892Z,1.67
2024-01-24T00:35:00.726Z,2.73
2024-01-24T00:37:27.707Z,3.00
2024-01-24T00:39:54.595Z,1.63
2024-01-24T00:42:21.528Z,1.10
2024-01-24T00:44:51.931Z,1.50
2024-01-24T00:47:20.354Z,2.27
2024-01-24T00:49:47.711Z,1.93
2024-01-24T00:52:15.004Z,1.87
2024-01-24T00:54:41.947Z,1.70
2024-01-24T00:57:08.930Z,1.20
2024-01-24T00:59:35.759Z,1.40
2024-01-24T01:02:03.835Z,1.80
2024-01-24T01:04:30.816Z,1.40
2024-01-24T01:06:57.682Z,2.10
2024-01-24T01:09:24.550Z,1.00
2024-01-24T01:11:51.346Z,3.20
2024-01-24T01:14:18.137Z,1.90
2024-01-24T01:16:44.918Z,2.33
2024-01-24T01:19:11.964Z,1.30
2024-01-24T01:21:41.546Z,1.00
2024-01-24T01:24:10.536Z,6.20
2024-01-24T01:26:37.551Z,1.27
2024-01-24T01:29:04.823Z,1.43
2024-01-24T01:31:31.660Z,1.10
2024-01-24T01:33:58.774Z,1.10
2024-01-24T01:36:25.670Z,1.30
2024-01-24T01:38:52.523Z,1.10
2024-01-24T01:41:19.361Z,1.50
2024-01-24T01:43:46.345Z,1.00
2024-01-24T01:46:20.045Z,1.93
2024-01-24T01:48:47.942Z,1.63
2024-01-24T01:51:15.174Z,1.20
2024-01-24T01:53:42.099Z,3.83
2024-01-24T01:56:11.160Z,1.03
2024-01-24T01:58:39.904Z,1.20
2024-01-24T02:01:08.353Z,3.47
2024-01-24T02:03:35.528Z,1.20
2024-01-24T02:06:03.111Z,1.63
2024-01-24T02:08:32.848Z,1.83
2024-01-24T02:11:00.254Z,1.20
2024-01-24T02:13:33.952Z,1.10
2024-01-24T02:16:01.147Z,1.20
2024-01-24T02:18:28.195Z,1.47
2024-01-24T02:20:55.479Z,1.30
2024-01-24T02:23:26.957Z,1.37
2024-01-24T02:25:54.411Z,1.33
2024-01-24T02:28:21.606Z,1.00
2024-01-24T02:30:48.622Z,2.60
2024-01-24T02:33:15.921Z,1.87
2024-01-24T02:35:42.934Z,1.87
2024-01-24T02:38:09.794Z,3.10
2024-01-24T02:40:36.698Z,1.37
2024-01-24T02:43:03.735Z,1.80
2024-01-24T02:45:30.574Z,1.10
2024-01-24T02:47:57.437Z,2.07
2024-01-24T02:50:24.393Z,1.87
2024-01-24T02:52:51.377Z,1.60
2024-01-24T02:55:18.254Z,4.23
2024-01-24T02:57:48.250Z,2.67
2024-01-24T03:00:24.356Z,1.40
2024-01-24T03:02:55.450Z,1.77
2024-01-24T03:05:24.490Z,1.47
2024-01-24T03:07:53.535Z,1.37
2024-01-24T03:10:24.706Z,1.97
2024-01-24T03:12:59.060Z,1.30
2024-01-24T03:15:29.060Z,2.27
2024-01-24T03:17:56.720Z,2.00
2024-01-24T03:20:26.174Z,1.20
2024-01-24T03:22:54.047Z,1.27
2024-01-24T03:25:23.853Z,2.33
2024-01-24T03:27:54.787Z,4.80
2024-01-24T03:30:24.288Z,1.60
2024-01-24T03:32:51.195Z,3.20
2024-01-24T03:35:18.145Z,1.70
2024-01-24T03:37:44.937Z,1.70
2024-01-24T03:40:12.075Z,1.50
2024-01-24T03:42:38.931Z,1.70
2024-01-24T03:45:06.231Z,1.43
2024-01-24T03:47:33.165Z,2.30
2024-01-24T03:50:00.151Z,1.30
2024-01-24T03:52:27.057Z,1.57
2024-01-24T03:54:54.014Z,3.30
2024-01-24T03:57:20.922Z,1.97
2024-01-24T03:59:47.769Z,1.60
2024-01-24T04:02:14.554Z,3.77
2024-01-24T04:04:41.407Z,1.20
2024-01-24T04:07:08.346Z,1.30
2024-01-24T04:09:35.233Z,1.63
2024-01-24T04:12:02.188Z,1.07
2024-01-24T04:14:28.981Z,1.00
2024-01-24T04:16:55.848Z,1.50
2024-01-24T04:19:22.919Z,2.50
2024-01-24T04:21:49.774Z,1.20
2024-01-24T04:24:17.020Z,1.00
2024-01-24T04:26:43.918Z,1.90
2024-01-24T04:29:13.526Z,1.30
2024-01-24T04:31:42.608Z,1.10
2024-01-24T04:34:09.619Z,1.33
2024-01-24T04:36:37.042Z,2.33
2024-01-24T04:39:04.020Z,3.30
2024-01-24T04:41:30.860Z,1.23
2024-01-24T04:43:57.666Z,1.00
2024-01-24T04:46:24.457Z,1.27
2024-01-24T04:48:51.382Z,2.70
2024-01-24T04:51:18.230Z,1.20
2024-01-24T04:53:45.111Z,1.00
2024-01-24T04:56:11.952Z,1.00
2024-01-24T04:58:40.737Z,1.10
2024-01-24T05:01:08.053Z,1.10
2024-01-24T05:03:35.137Z,1.40
2024-01-24T05:06:07.602Z,1.00
2024-01-24T05:08:37.599Z,1.57
2024-01-24T05:11:05.612Z,1.10
2024-01-24T05:13:33.122Z,1.10
2024-01-24T05:16:00.581Z,1.87
2024-01-24T05:18:27.656Z,2.10
2024-01-24T05:20:54.634Z,0.90
2024-01-24T05:23:21.851Z,1.00
2024-01-24T05:25:48.804Z,2.07
2024-01-24T05:28:15.624Z,1.40
2024-01-24T05:30:42.565Z,1.00
2024-01-24T05:33:11.512Z,1.00
2024-01-24T05:35:38.471Z,1.00
2024-01-24T05:38:05.480Z,4.50
2024-01-24T05:40:32.499Z,1.00
2024-01-24T05:43:00.673Z,1.10
2024-01-24T05:45:27.722Z,1.20
2024-01-24T05:47:54.687Z,1.10
2024-01-24T05:50:21.696Z,1.00
2024-01-24T05:52:48.556Z,1.00
2024-01-24T05:55:15.434Z,1.13
2024-01-24T05:57:43.159Z,1.00
2024-01-24T06:00:15.735Z,1.10
2024-01-24T06:02:44.458Z,1.87
2024-01-24T06:05:12.093Z,1.20
2024-01-24T06:07:40.201Z,2.07
2024-01-24T06:10:08.304Z,1.40
2024-01-24T06:12:35.162Z,1.60
2024-01-24T06:15:03.330Z,1.30
2024-01-24T06:17:31.012Z,1.30
2024-01-24T06:19:58.834Z,2.17
2024-01-24T06:22:25.626Z,1.30
2024-01-24T06:24:52.530Z,2.13
2024-01-24T06:27:19.508Z,1.23
2024-01-24T06:30:16.892Z,1.50
2024-01-24T06:32:33.147Z,3.80
2024-01-24T06:34:59.958Z,1.40
2024-01-24T06:37:26.811Z,2.47
2024-01-24T06:39:53.772Z,2.07
2024-01-24T06:42:21.237Z,2.13
2024-01-24T06:44:48.248Z,1.20
2024-01-24T06:47:15.296Z,2.37
2024-01-24T06:49:42.318Z,1.20
2024-01-24T06:52:09.164Z,1.83
2024-01-24T06:54:36.790Z,3.50
2024-01-24T06:57:04.711Z,5.50
2024-01-24T06:59:32.531Z,2.87
2024-01-24T07:02:00.340Z,3.17
2024-01-24T07:04:27.441Z,2.40
2024-01-24T07:06:54.473Z,5.17
2024-01-24T07:09:21.421Z,9.10
2024-01-24T07:11:48.223Z,4.87
2024-01-24T07:14:16.162Z,6.83
2024-01-24T07:16:45.052Z,10.87
2024-01-24T07:19:12.026Z,9.57
2024-01-24T07:21:39.119Z,2.63
2024-01-24T07:24:06.249Z,6.63
2024-01-24T07:26:33.245Z,9.13
2024-01-24T07:29:00.810Z,5.97
2024-01-24T07:31:27.667Z,7.50
2024-01-24T07:33:54.568Z,7.80
2024-01-24T07:36:24.361Z,3.70
2024-01-24T07:38:51.248Z,14.27
2024-01-24T07:41:18.212Z,11.33
2024-01-24T07:43:45.040Z,6.63
2024-01-24T07:46:12.523Z,10.53
2024-01-24T07:48:40.064Z,8.70
2024-01-24T07:51:07.188Z,10.20
2024-01-24T07:53:34.678Z,7.43
2024-01-24T07:56:10.946Z,8.50
2024-01-24T07:58:46.441Z,9.90
2024-01-24T08:01:13.798Z,15.87
2024-01-24T08:03:42.404Z,15.47
2024-01-24T08:06:09.978Z,17.80
2024-01-24T08:08:36.884Z,22.03
2024-01-24T08:11:03.996Z,10.30
2024-01-24T08:13:33.069Z,13.33
2024-01-24T08:16:00.058Z,14.93
2024-01-24T08:18:27.174Z,17.70
2024-01-24T08:20:56.451Z,9.83
2024-01-24T08:23:28.835Z,19.63
2024-01-24T08:26:01.105Z,9.23
2024-01-24T08:28:27.989Z,10.97
2024-01-24T08:30:54.942Z,12.30
2024-01-24T08:33:22.304Z,13.73
2024-01-24T08:35:49.185Z,17.30
2024-01-24T08:38:15.965Z,21.83
2024-01-24T08:40:43.140Z,8.80
2024-01-24T08:43:10.552Z,9.10
2024-01-24T08:45:37.449Z,9.40
2024-01-24T08:48:05.130Z,11.87
2024-01-24T08:50:33.201Z,8.03
2024-01-24T08:53:00.161Z,11.30
2024-01-24T08:55:27.171Z,17.57
2024-01-24T08:57:54.377Z,13.50
2024-01-24T09:00:21.486Z,14.80
2024-01-24T09:02:48.369Z,14.13
2024-01-24T09:05:19.871Z,12.57
2024-01-24T09:07:46.962Z,15.70
2024-01-24T09:10:14.225Z,12.63
2024-01-24T09:12:41.432Z,10.43
2024-01-24T09:15:09.353Z,25.23
2024-01-24T09:17:36.990Z,15.10
2024-01-24T09:20:04.776Z,13.03
2024-01-24T09:22:32.145Z,22.77
2024-01-24T09:25:00.495Z,13.13
2024-01-24T09:27:28.498Z,14.00
2024-01-24T09:29:55.420Z,13.47
2024-01-24T09:32:22.261Z,12.90
2024-01-24T09:34:49.386Z,25.70
2024-01-24T09:37:16.846Z,14.70
2024-01-24T09:39:43.641Z,17.90
2024-01-24T09:42:19.868Z,19.17
2024-01-24T09:44:50.169Z,29.60
2024-01-24T09:47:20.880Z,18.53
2024-01-24T09:49:47.925Z,27.20
2024-01-24T09:52:18.198Z,11.40
2024-01-24T09:54:46.492Z,21.33
2024-01-24T09:57:16.754Z,16.80
2024-01-24T09:59:43.772Z,15.30
2024-01-24T10:02:11.433Z,25.00
2024-01-24T10:04:39.073Z,13.23
2024-01-24T10:07:09.939Z,13.03
2024-01-24T10:09:37.092Z,21.23
2024-01-24T10:12:05.337Z,18.23
2024-01-24T10:14:33.441Z,18.50
2024-01-24T10:17:00.836Z,14.00
2024-01-24T10:19:28.693Z,13.10
2024-01-24T10:21:56.019Z,16.93
2024-01-24T10:24:23.057Z,24.03
2024-01-24T10:26:50.213Z,15.17
2024-01-24T10:29:17.718Z,24.50
2024-01-24T10:31:44.784Z,21.17
2024-01-24T10:34:12.308Z,20.87
2024-01-24T10:36:43.704Z,13.60
2024-01-24T10:39:15.512Z,15.60
2024-01-24T10:41:45.216Z,13.40
2024-01-24T10:44:18.081Z,15.87
2024-01-24T10:46:45.257Z,27.03
2024-01-24T10:49:13.878Z,22.03
2024-01-24T10:51:43.285Z,16.10
2024-01-24T10:54:13.122Z,18.23
2024-01-24T10:56:42.209Z,14.93
2024-01-24T10:59:14.292Z,19.80
2024-01-24T11:01:43.981Z,23.10
2024-01-24T11:04:13.209Z,27.67
2024-01-24T11:06:46.470Z,17.57
2024-01-24T11:09:54.748Z,19.70
2024-01-24T11:12:22.892Z,29.20
2024-01-24T11:14:50.823Z,18.73
2024-01-24T11:17:18.175Z,17.93
2024-01-24T11:19:45.513Z,21.90
2024-01-24T11:22:27.309Z,14.73
2024-01-24T11:25:00.108Z,18.33
2024-01-24T11:27:36.465Z,17.87
2024-01-24T11:30:40.222Z,15.70
2024-01-24T11:33:15.923Z,24.93
2024-01-24T11:35:48.283Z,21.23
2024-01-24T11:38:26.052Z,22.47
2024-01-24T11:41:02.277Z,18.90
2024-01-24T11:43:36.952Z,20.50
2024-01-24T11:46:10.667Z,25.27
2024-01-24T11:48:40.856Z,23.77
2024-01-24T11:51:11.349Z,20.47
2024-01-24T11:53:41.012Z,23.60
2024-01-24T11:56:18.083Z,25.97
2024-01-24T11:58:45.381Z,27.40
2024-01-24T12:01:13.758Z,15.20
2024-01-24T12:03:49.360Z,18.57
2024-01-24T12:06:18.394Z,22.53
2024-01-24T12:08:50.089Z,16.30
2024-01-24T12:11:19.108Z,26.00
2024-01-24T12:13:46.899Z,17.57
2024-01-24T12:16:14.204Z,22.30
2024-01-24T12:18:42.928Z,27.47
2024-01-24T12:21:11.197Z,17.50
2024-01-24T12:23:39.516Z,21.70
2024-01-24T12:26:07.091Z,20.23
2024-01-24T12:28:34.759Z,17.83
2024-01-24T12:31:05.972Z,18.60
2024-01-24T12:33:37.465Z,21.53
2024-01-24T12:36:06.508Z,20.93
2024-01-24T12:38:37.701Z,24.93
2024-01-24T12:41:05.952Z,21.20
2024-01-24T12:43:33.709Z,18.93
2024-01-24T12:46:10.605Z,19.20
2024-01-24T12:48:39.117Z,24.90
2024-01-24T12:51:07.298Z,16.90
2024-01-24T12:53:35.039Z,32.40
2024-01-24T12:56:02.730Z,15.60
2024-01-24T12:58:30.208Z,17.47
2024-01-24T13:00:57.776Z,27.63
2024-01-24T13:03:27.609Z,21.27
2024-01-24T13:05:57.034Z,27.83
2024-01-24T13:08:24.871Z,21.17
2024-01-24T13:10:58.248Z,19.43
2024-01-24T13:13:25.836Z,20.93
2024-01-24T13:15:55.087Z,24.03
2024-01-24T13:18:22.825Z,16.63
2024-01-24T13:20:52.957Z,18.83
2024-01-24T13:23:20.258Z,20.93
2024-01-24T13:25:50.691Z,19.53
2024-01-24T13:28:18.344Z,26.07
2024-01-24T13:30:45.845Z,9.90
2024-01-24T13:33:13.481Z,16.60
2024-01-24T13:35:40.811Z,19.60
2024-01-24T13:38:08.212Z,15.67
2024-01-24T13:40:35.671Z,16.60
2024-01-24T13:43:03.128Z,17.47
2024-01-24T13:45:31.361Z,18.70
2024-01-24T13:47:58.563Z,25.30
2024-01-24T13:50:26.175Z,15.90
2024-01-24T13:52:53.493Z,26.57
2024-01-24T13:55:22.820Z,28.30
2024-01-24T13:57:55.754Z,18.00
2024-01-24T14:00:23.161Z,21.23
2024-01-24T14:02:50.497Z,24.67
2024-01-24T14:05:18.759Z,26.80
2024-01-24T14:07:46.269Z,16.03
2024-01-24T14:10:14.274Z,26.57
2024-01-24T14:12:42.278Z,20.33
2024-01-24T14:15:20.351Z,19.13
2024-01-24T14:17:56.517Z,24.23
2024-01-24T14:20:24.947Z,18.20
2024-01-24T14:22:52.624Z,21.67
2024-01-24T14:25:19.825Z,25.73
2024-01-24T14:27:47.139Z,14.37
2024-01-24T14:30:15.049Z,18.97
2024-01-24T14:32:42.428Z,30.03
2024-01-24T14:35:10.317Z,21.83
2024-01-24T14:37:39.189Z,29.43
2024-01-24T14:40:07.543Z,30.33
2024-01-24T14:42:37.872Z,15.80
2024-01-24T14:45:07.611Z,19.63
2024-01-24T14:47:34.963Z,17.33
2024-01-24T14:50:02.444Z,17.57
2024-01-24T14:52:29.982Z,18.63
2024-01-24T14:55:06.087Z,24.27
2024-01-24T14:57:34.048Z,24.53
2024-01-24T15:00:02.179Z,16.03
2024-01-24T15:02:29.525Z,31.73
2024-01-24T15:04:59.959Z,19.07
2024-01-24T15:07:29.651Z,19.40
2024-01-24T15:10:02.722Z,19.77
2024-01-24T15:12:30.253Z,16.10
2024-01-24T15:15:01.096Z,15.10
2024-01-24T15:17:28.916Z,23.13
2024-01-24T15:19:56.369Z,23.80
2024-01-24T15:22:24.057Z,20.83
2024-01-24T15:24:54.433Z,18.00
2024-01-24T15:27:23.378Z,24.17
2024-01-24T15:29:52.409Z,25.53
2024-01-24T15:32:20.085Z,26.90
2024-01-24T15:34:48.600Z,18.20
2024-01-24T15:37:21.468Z,18.60
2024-01-24T15:39:51.788Z,27.97
2024-01-24T15:42:23.361Z,28.90
2024-01-24T15:44:51.286Z,22.03
2024-01-24T15:47:25.313Z,14.83
2024-01-24T15:49:52.790Z,24.50
2024-01-24T15:52:23.253Z,20.53
2024-01-24T15:54:53.237Z,22.97
2024-01-24T15:57:23.579Z,18.53
2024-01-24T15:59:51.429Z,21.07
2024-01-24T16:02:18.728Z,16.93
2024-01-24T16:04:59.047Z,13.63
2024-01-24T16:07:26.512Z,18.33
2024-01-24T16:09:55.078Z,16.57
2024-01-24T16:12:22.540Z,21.53
2024-01-24T16:14:49.981Z,21.27
2024-01-24T16:17:17.105Z,14.07
2024-01-24T16:19:44.404Z,23.63
2024-01-24T16:22:14.931Z,23.10
2024-01-24T16:24:42.532Z,19.07
2024-01-24T16:27:09.787Z,23.63
2024-01-24T16:29:36.940Z,16.57
2024-01-24T16:32:04.501Z,19.40
2024-01-24T16:34:31.873Z,20.13
2024-01-24T16:36:59.347Z,15.97
2024-01-24T16:39:26.742Z,17.67
2024-01-24T16:41:54.590Z,18.70
2024-01-24T16:44:23.700Z,21.87
2024-01-24T16:46:51.097Z,21.70
2024-01-24T16:49:18.321Z,24.30
2024-01-24T16:51:45.629Z,33.43
2024-01-24T16:54:12.963Z,12.53
2024-01-24T16:56:40.153Z,22.97
2024-01-24T16:59:08.452Z,23.17
2024-01-24T17:01:35.860Z,27.27
2024-01-24T17:04:06.371Z,15.40
2024-01-24T17:06:33.996Z,13.47
2024-01-24T17:09:01.450Z,22.87
2024-01-24T17:11:28.737Z,21.57
2024-01-24T17:13:56.142Z,22.57
2024-01-24T17:16:23.558Z,20.73
2024-01-24T17:18:51.073Z,21.27
2024-01-24T17:21:18.423Z,24.40
2024-01-24T17:23:46.906Z,28.37
2024-01-24T17:26:14.469Z,26.43
2024-01-24T17:28:41.852Z,28.17
2024-01-24T17:31:11.070Z,21.50
2024-01-24T17:33:38.600Z,18.20
2024-01-24T17:36:06.317Z,26.23
2024-01-24T17:38:33.790Z,18.13
2024-01-24T17:41:01.827Z,15.03
2024-01-24T17:43:29.915Z,18.83
2024-01-24T17:45:57.664Z,20.90
2024-01-24T17:48:25.304Z,23.07
2024-01-24T17:50:52.933Z,12.23
2024-01-24T17:53:20.356Z,19.47
2024-01-24T17:55:47.898Z,24.73
2024-01-24T17:58:18.278Z,35.73
2024-01-24T18:00:45.680Z,21.20
2024-01-24T18:03:13.237Z,22.67
2024-01-24T18:05:41.173Z,28.93
2024-01-24T18:08:08.865Z,25.43
2024-01-24T18:10:36.658Z,18.67
2024-01-24T18:13:04.189Z,27.37
2024-01-24T18:15:33.420Z,36.67
2024-01-24T18:18:01.945Z,31.07
2024-01-24T18:20:33.567Z,19.10
2024-01-24T18:23:01.752Z,22.97
2024-01-24T18:25:29.615Z,22.60
2024-01-24T18:27:57.075Z,17.83
2024-01-24T18:30:24.286Z,17.73
2024-01-24T18:32:54.964Z,21.50
2024-01-24T18:35:25.355Z,32.37
2024-01-24T18:37:52.959Z,25.83
2024-01-24T18:40:20.266Z,19.20
2024-01-24T18:42:52.082Z,21.63
2024-01-24T18:45:19.688Z,31.67
2024-01-24T18:47:48.616Z,25.47
2024-01-24T18:50:16.748Z,21.57
2024-01-24T18:52:45.477Z,29.30
2024-01-24T18:55:13.954Z,21.10
2024-01-24T18:57:41.513Z,32.80
2024-01-24T19:00:12.520Z,22.17
2024-01-24T19:02:40.189Z,15.07
2024-01-24T19:05:15.943Z,30.30
2024-01-24T19:07:47.568Z,21.37
2024-01-24T19:10:15.423Z,16.63
2024-01-24T19:12:42.307Z,28.27
2024-01-24T19:15:09.361Z,24.33
2024-01-24T19:17:37.265Z,27.10
2024-01-24T19:20:04.631Z,26.53
2024-01-24T19:22:32.008Z,17.33
2024-01-24T19:24:58.899Z,33.00
2024-01-24T19:27:25.766Z,25.47
2024-01-24T19:29:52.686Z,24.97
2024-01-24T19:32:19.601Z,24.07
2024-01-24T19:34:57.079Z,31.33
2024-01-24T19:37:23.979Z,40.30
2024-01-24T19:39:50.889Z,23.60
2024-01-24T19:42:17.926Z,34.20
2024-01-24T19:44:44.866Z,26.07
2024-01-24T19:47:11.695Z,26.03
2024-01-24T19:49:38.689Z,25.00
2024-01-24T19:52:05.819Z,27.93
2024-01-24T19:54:33.423Z,33.50
2024-01-24T19:57:00.405Z,30.07
2024-01-24T19:59:27.358Z,25.90
2024-01-24T20:01:55.368Z,31.20
2024-01-24T20:04:22.350Z,22.70
2024-01-24T20:06:49.284Z,20.40
2024-01-24T20:09:18.062Z,19.43
2024-01-24T20:11:45.583Z,29.27
2024-01-24T20:14:12.550Z,29.00
2024-01-24T20:16:39.674Z,18.97
2024-01-24T20:19:06.921Z,21.40
2024-01-24T20:21:39.865Z,16.60
2024-01-24T20:24:09.000Z,20.97
2024-01-24T20:26:35.980Z,19.90
2024-01-24T20:29:02.961Z,32.40
2024-01-24T20:31:29.965Z,25.63
2024-01-24T20:33:57.547Z,27.47
2024-01-24T20:36:24.818Z,25.77
2024-01-24T20:38:51.685Z,24.43
2024-01-24T20:41:18.571Z,25.30
2024-01-24T20:43:46.074Z,23.40
2024-01-24T20:46:14.418Z,19.33
2024-01-24T20:48:42.192Z,34.73
2024-01-24T20:51:09.443Z,28.13
2024-01-24T20:53:36.496Z,22.60
2024-01-24T20:56:04.473Z,32.67
2024-01-24T20:58:31.734Z,28.53
2024-01-24T21:00:59.687Z,26.17
2024-01-24T21:03:26.872Z,20.70
2024-01-24T21:05:56.023Z,23.70
2024-01-24T21:08:24.534Z,25.57
2024-01-24T21:10:55.914Z,27.57
2024-01-24T21:13:29.626Z,22.40
2024-01-24T21:15:56.755Z,22.67
2024-01-24T21:18:24.117Z,21.57
2024-01-24T21:20:51.434Z,23.33
2024-01-24T21:23:18.491Z,26.70
2024-01-24T21:25:45.375Z,25.73
2024-01-24T21:28:12.276Z,29.33
2024-01-24T21:30:39.318Z,25.57
2024-01-24T21:33:06.296Z,16.97
2024-01-24T21:35:33.150Z,26.17
2024-01-24T21:38:00.057Z,22.37
2024-01-24T21:40:26.855Z,12.67
2024-01-24T21:42:53.854Z,27.50
2024-01-24T21:45:20.808Z,31.67
2024-01-24T21:47:47.662Z,36.80
2024-01-24T21:50:14.571Z,27.33
2024-01-24T21:52:41.371Z,33.17
2024-01-24T21:55:08.639Z,30.43
2024-01-24T21:57:35.567Z,29.90
2024-01-24T22:00:02.568Z,30.63
2024-01-24T22:02:29.467Z,24.30
2024-01-24T22:04:56.291Z,24.63
2024-01-24T22:07:23.243Z,22.67
2024-01-24T22:09:52.402Z,28.47
2024-01-24T22:12:19.317Z,26.67
2024-01-24T22:14:46.240Z,16.00
2024-01-24T22:17:13.285Z,15.43
2024-01-24T22:19:40.263Z,18.23
2024-01-24T22:22:07.261Z,31.80
2024-01-24T22:24:34.225Z,24.20
2024-01-24T22:27:01.158Z,22.63
2024-01-24T22:29:28.319Z,21.63
2024-01-24T22:31:55.172Z,25.00
2024-01-24T22:34:22.289Z,37.00
2024-01-24T22:36:49.327Z,17.30
2024-01-24T22:39:16.714Z,21.83
2024-01-24T22:41:43.673Z,23.60
2024-01-24T22:44:11.293Z,28.80
2024-01-24T22:46:41.551Z,21.80
2024-01-24T22:49:09.832Z,20.10
2024-01-24T22:51:37.326Z,20.00
2024-01-24T22:54:04.282Z,25.93
2024-01-24T22:56:31.737Z,19.50
2024-01-24T22:58:58.588Z,23.67
2024-01-24T23:01:26.197Z,21.03
2024-01-24T23:03:53.106Z,21.13
2024-01-24T23:06:20.070Z,31.70
2024-01-24T23:08:46.949Z,20.40
2024-01-24T23:11:14.127Z,29.73
2024-01-24T23:13:41.782Z,21.90
2024-01-24T23:16:09.396Z,27.00
2024-01-24T23:18:36.599Z,19.03
2024-01-24T23:21:03.680Z,18.47
2024-01-24T23:23:30.752Z,29.97
2024-01-24T23:25:57.716Z,33.10
2024-01-24T23:28:24.762Z,26.97
2024-01-24T23:30:52.213Z,24.10
2024-01-24T23:33:19.486Z,32.50
2024-01-24T23:35:46.470Z,27.07
2024-01-24T23:38:13.378Z,23.60
2024-01-24T23:40:40.412Z,20.83
2024-01-24T23:43:07.379Z,29.37
2024-01-24T23:45:34.366Z,25.17
2024-01-24T23:48:01.430Z,15.30
2024-01-24T23:50:28.588Z,26.43
2024-01-24T23:52:58.790Z,26.07
2024-01-24T23:55:26.903Z,23.47
2024-01-24T23:57:55.122Z,33.07
